Time;durP1;ratioP1;P1;durP2;ratioP2;P2;SDS_P1;SDS_P2;PMS_P1;PMS_P2;Temp;Humidity;BMP_temperature;BMP_pressure;BME280_temperature;BME280_humidity;BME280_pressure;Samples;Min_cycle;Max_cycle;Signal;HPM_P1;HPM_P2
2022/07/01 00:00:05;;;;;;;35.53;24.08;;;;;;;22.99;67.29;100752.84;4895873;28;121766;-80
2022/07/01 00:02:57;;;;;;;30.25;22.42;;;;;;;22.91;67.57;100742.25;4893772;28;121914;-80
2022/07/01 00:05:22;;;;;;;31.23;22.92;;;;;;;22.95;67.47;100753.16;4893614;28;123255;-80
2022/07/01 00:07:48;;;;;;;31.33;23.17;;;;;;;22.89;67.72;100735.69;4873205;28;124106;-81
2022/07/01 00:10:14;;;;;;;32.13;23.83;;;;;;;22.96;67.40;100752.63;4866148;28;125577;-80
2022/07/01 00:12:43;;;;;;;34.35;24.08;;;;;;;22.93;67.87;100741.72;4872556;28;122514;-80
2022/07/01 00:15:09;;;;;;;35.10;24.85;;;;;;;22.96;67.51;100749.81;4885544;28;122231;-80
2022/07/01 00:17:35;;;;;;;35.38;26.20;;;;;;;22.97;68.03;100745.00;4865578;28;123746;-81
2022/07/01 00:20:04;;;;;;;37.47;26.67;;;;;;;22.95;67.91;100737.13;4853130;28;123245;-81
2022/07/01 00:22:29;;;;;;;36.45;24.60;;;;;;;22.93;67.82;100733.34;4858151;28;124242;-80
2022/07/01 00:24:55;;;;;;;33.25;24.85;;;;;;;22.91;68.30;100731.06;4876117;28;122515;-80
2022/07/01 00:27:22;;;;;;;37.35;25.17;;;;;;;22.99;67.70;100731.22;4887721;28;124202;-80
2022/07/01 00:29:47;;;;;;;32.28;25.23;;;;;;;23.00;68.19;100743.16;4835816;28;123247;-80
2022/07/01 00:32:16;;;;;;;36.70;25.15;;;;;;;22.94;68.40;100738.41;4869863;28;122012;-80
2022/07/01 00:34:42;;;;;;;34.25;26.13;;;;;;;23.00;67.91;100743.91;4885009;28;123913;-80
2022/07/01 00:37:07;;;;;;;34.63;24.02;;;;;;;22.92;67.88;100731.84;4874161;28;125889;-80
2022/07/01 00:39:35;;;;;;;33.35;22.77;;;;;;;22.96;67.64;100735.84;4872220;28;121930;-80
2022/07/01 00:42:03;;;;;;;37.75;26.83;;;;;;;23.02;68.08;100732.94;4859175;28;124249;-80
2022/07/01 00:44:29;;;;;;;36.13;24.80;;;;;;;22.98;68.22;100720.56;4890837;28;122725;-81
2022/07/01 00:46:56;;;;;;;34.45;25.02;;;;;;;22.91;68.61;100716.34;4874509;28;124084;-81
2022/07/01 00:49:23;;;;;;;33.92;23.50;;;;;;;23.02;68.57;100752.53;4890383;28;124977;-80
2022/07/01 00:51:49;;;;;;;28.15;19.85;;;;;;;23.06;68.62;100768.97;4874771;28;122357;-80
2022/07/01 00:54:15;;;;;;;30.27;20.85;;;;;;;23.08;68.46;100752.41;4891252;28;121944;-81
2022/07/01 00:56:41;;;;;;;26.48;20.40;;;;;;;23.09;68.76;100721.09;4873629;28;124364;-80
2022/07/01 00:59:31;;;;;;;30.25;21.30;;;;;;;23.09;68.66;100737.88;4879290;28;121975;-80
2022/07/01 01:01:57;;;;;;;25.88;19.27;;;;;;;23.08;69.07;100753.16;4907036;28;122339;-81
2022/07/01 01:04:23;;;;;;;26.90;18.88;;;;;;;23.04;68.46;100769.53;4878295;28;125302;-80
2022/07/01 01:06:49;;;;;;;27.00;19.70;;;;;;;23.04;68.79;100811.47;4872136;28;122168;-80
2022/07/01 01:09:15;;;;;;;31.52;22.30;;;;;;;23.11;68.61;100780.06;4856364;28;125147;-80
2022/07/01 01:11:41;;;;;;;29.08;20.98;;;;;;;23.14;69.14;100800.63;4873782;28;122150;-80
2022/07/01 01:14:06;;;;;;;33.60;23.38;;;;;;;23.16;68.87;100798.78;4873423;28;124459;-80
2022/07/01 01:16:33;;;;;;;33.45;23.45;;;;;;;23.14;69.18;100795.78;4871552;28;124969;-80
2022/07/01 01:18:59;;;;;;;28.88;21.98;;;;;;;23.20;68.74;100771.28;4884986;28;122211;-80
2022/07/01 01:21:28;;;;;;;30.73;22.25;;;;;;;23.17;68.65;100744.34;4883377;28;124349;-79
2022/07/01 01:23:53;;;;;;;30.35;24.00;;;;;;;23.22;69.35;100746.31;4894865;28;123265;-80
2022/07/01 01:26:21;;;;;;;30.30;22.38;;;;;;;23.20;69.16;100745.34;4877467;28;121806;-80
2022/07/01 01:28:48;;;;;;;27.77;21.30;;;;;;;23.25;68.71;100742.44;4887263;28;124162;-80
2022/07/01 01:31:14;;;;;;;31.27;23.27;;;;;;;23.27;68.86;100748.25;4877611;28;122115;-80
2022/07/01 01:33:40;;;;;;;32.78;24.25;;;;;;;23.23;69.13;100759.00;4871266;28;125277;-80
2022/07/01 01:36:06;;;;;;;37.05;23.98;;;;;;;23.26;69.33;100746.72;4887587;28;124340;-80
2022/07/01 01:38:36;;;;;;;35.75;24.67;;;;;;;23.26;69.32;100743.94;4889885;28;122218;-79
2022/07/01 01:41:11;;;;;;;32.55;23.63;;;;;;;23.27;69.22;100744.69;4865700;28;121923;-80
2022/07/01 01:43:39;;;;;;;31.55;24.13;;;;;;;23.31;69.65;100741.56;4856334;28;125506;-80
2022/07/01 01:46:05;;;;;;;35.00;23.63;;;;;;;23.29;69.46;100725.31;4883385;28;122066;-80
2022/07/01 01:48:31;;;;;;;37.28;25.15;;;;;;;23.27;69.30;100717.44;4867376;28;122300;-81
2022/07/01 01:50:57;;;;;;;36.63;25.52;;;;;;;23.34;69.90;100721.63;4873893;28;122426;-80
2022/07/01 01:53:23;;;;;;;38.38;26.42;;;;;;;23.33;69.77;100708.94;4842328;28;122818;-80
2022/07/01 01:55:49;;;;;;;35.97;25.80;;;;;;;23.27;69.11;100694.31;4888037;28;122783;-81
2022/07/01 01:58:15;;;;;;;33.72;24.70;;;;;;;23.27;69.64;100695.06;4894230;28;122223;-81
2022/07/01 02:00:41;;;;;;;39.75;27.25;;;;;;;23.23;70.14;100686.25;4890310;28;122009;-81
2022/07/01 02:03:07;;;;;;;38.05;25.88;;;;;;;23.31;69.84;100696.78;4872858;28;125833;-81
2022/07/01 02:05:35;;;;;;;39.38;28.13;;;;;;;23.27;69.78;100691.50;4840973;28;121975;-81
2022/07/01 02:08:02;;;;;;;38.88;26.67;;;;;;;23.34;69.77;100712.50;4867056;28;124223;-81
2022/07/01 02:10:28;;;;;;;37.72;27.58;;;;;;;23.28;69.71;100699.38;4909701;28;122342;-81
2022/07/01 02:12:53;;;;;;;39.63;28.27;;;;;;;23.34;69.57;100712.50;4873556;28;124661;-81
2022/07/01 02:15:19;;;;;;;39.28;26.70;;;;;;;23.30;69.82;100700.88;4868680;28;125487;-80
2022/07/01 02:17:45;;;;;;;39.88;25.92;;;;;;;23.32;69.86;100698.28;4872982;28;122472;-80
2022/07/01 02:20:14;;;;;;;35.17;24.52;;;;;;;23.25;70.13;100689.25;4873738;28;124066;-80
2022/07/01 02:22:41;;;;;;;35.67;25.88;;;;;;;23.23;69.62;100680.66;4889082;28;125259;-80
2022/07/01 02:25:07;;;;;;;35.05;25.67;;;;;;;23.31;70.23;100691.19;4873397;28;122552;-81
2022/07/01 02:27:33;;;;;;;36.45;26.08;;;;;;;23.30;70.13;100679.25;4891050;28;122013;-81
2022/07/01 02:29:59;;;;;;;35.38;25.60;;;;;;;23.32;69.63;100684.28;4856395;28;124996;-81
2022/07/01 02:32:25;;;;;;;32.72;25.88;;;;;;;23.32;70.38;100675.91;4860821;28;122298;-81
2022/07/01 02:34:51;;;;;;;39.78;27.15;;;;;;;23.28;70.30;100668.59;4891143;28;123216;-81
2022/07/01 02:37:17;;;;;;;42.65;28.77;;;;;;;23.30;69.88;100651.25;4892528;28;122057;-81
2022/07/01 02:39:42;;;;;;;39.88;27.00;;;;;;;23.31;69.92;100660.41;4872178;28;122622;-81
2022/07/01 02:42:23;;;;;;;31.48;24.08;;;;;;;23.31;70.30;100666.00;4856929;28;125781;-81
2022/07/01 02:44:49;;;;;;;36.08;24.48;;;;;;;23.30;69.83;100661.69;4888406;28;122128;-81
2022/07/01 02:47:14;;;;;;;39.30;25.65;;;;;;;23.30;70.15;100659.66;4871971;28;122278;-80
2022/07/01 02:49:40;;;;;;;37.13;26.73;;;;;;;23.30;69.97;100662.44;4869840;28;123902;-81
2022/07/01 02:52:06;;;;;;;37.35;27.15;;;;;;;23.30;70.39;100661.69;4888955;28;122143;-81
2022/07/01 02:55:10;;;;;;;35.90;25.27;;;;;;;23.22;70.02;100651.16;4848877;28;122356;-81
2022/07/01 02:57:36;;;;;;;33.28;23.10;;;;;;;23.24;70.44;100656.97;4841186;28;123050;-81
2022/07/01 03:00:10;;;;;;;31.73;22.95;;;;;;;23.25;70.13;100671.72;4850383;28;124284;-81
2022/07/01 03:02:36;;;;;;;36.17;23.95;;;;;;;23.30;70.17;100681.28;4843993;28;125551;-81
2022/07/01 03:05:03;;;;;;;31.55;23.70;;;;;;;23.25;70.14;100694.09;4847582;28;122701;-81
2022/07/01 03:07:29;;;;;;;32.55;24.88;;;;;;;23.28;70.14;100723.81;4842170;28;122151;-81
2022/07/01 03:09:54;;;;;;;34.45;24.48;;;;;;;23.22;70.31;100726.72;4847191;28;122940;-82
2022/07/01 03:12:29;;;;;;;36.83;26.75;;;;;;;23.26;70.62;100735.53;4848711;28;122463;-82
2022/07/01 03:15:00;;;;;;;38.00;26.67;;;;;;;23.26;70.35;100745.97;4832490;28;124737;-82
2022/07/01 03:17:31;;;;;;;40.20;28.42;;;;;;;23.23;70.73;100730.25;4835341;28;122601;-82
2022/07/01 03:19:57;;;;;;;41.10;29.13;;;;;;;23.23;71.05;100724.66;4835155;28;126282;-82
2022/07/01 03:22:55;;;;;;;37.83;26.58;;;;;;;23.20;70.25;100734.16;4834989;28;122579;-82
2022/07/01 03:25:21;;;;;;;42.45;29.65;;;;;;;23.16;70.87;100716.91;4849003;28;121946;-82
2022/07/01 03:27:47;;;;;;;47.42;28.48;;;;;;;23.14;70.46;100711.84;4848493;28;124766;-82
2022/07/01 03:30:14;;;;;;;37.75;27.63;;;;;;;23.19;70.51;100713.81;4871883;28;125231;-82
2022/07/01 03:32:40;;;;;;;42.75;28.05;;;;;;;23.19;70.66;100725.00;4869766;28;122464;-82
2022/07/01 03:35:35;;;;;;;41.63;29.33;;;;;;;23.09;70.84;100709.91;4857371;28;124581;-82
2022/07/01 03:37:52;;;;;;;41.53;28.65;;;;;;;23.15;70.63;100724.53;4864760;28;122870;-82
2022/07/01 03:40:18;;;;;;;42.10;29.33;;;;;;;23.12;71.11;100722.81;4892839;28;122190;-82
2022/07/01 03:42:43;;;;;;;42.45;29.50;;;;;;;23.07;70.84;100718.09;4871686;28;123543;-82
2022/07/01 03:45:09;;;;;;;45.78;29.45;;;;;;;23.07;71.14;100722.94;4872260;28;121945;-82
2022/07/01 03:47:35;;;;;;;49.13;30.88;;;;;;;23.05;71.17;100729.06;4856221;28;124924;-82
2022/07/01 03:50:00;;;;;;;42.45;29.17;;;;;;;23.10;70.61;100742.19;4872750;28;124220;-82
2022/07/01 03:52:26;;;;;;;47.10;30.00;;;;;;;23.09;71.12;100739.94;4889679;28;124466;-82
2022/07/01 03:54:52;;;;;;;45.28;29.40;;;;;;;23.11;70.93;100756.94;4888655;28;122238;-82
2022/07/01 03:57:17;;;;;;;45.20;29.95;;;;;;;23.07;70.72;100759.31;4868522;28;124901;-82
2022/07/01 03:59:43;;;;;;;47.78;29.95;;;;;;;23.08;70.44;100761.56;4884828;28;122196;-82
2022/07/01 04:02:11;;;;;;;46.35;31.05;;;;;;;23.11;71.46;100760.47;4870574;28;122317;-82
2022/07/01 04:04:37;;;;;;;47.28;31.02;;;;;;;23.13;71.77;100743.16;4866668;28;122968;-82
2022/07/01 04:07:19;;;;;;;43.25;29.42;;;;;;;23.15;71.19;100740.56;4883643;28;123409;-81
2022/07/01 04:09:44;;;;;;;42.42;29.25;;;;;;;23.16;71.78;100739.28;4868177;28;125739;-82
2022/07/01 04:12:12;;;;;;;43.33;29.55;;;;;;;23.19;70.88;100736.19;4888161;28;122414;-82
2022/07/01 04:14:40;;;;;;;44.58;29.75;;;;;;;23.19;71.14;100750.19;4882104;28;123553;-82
2022/07/01 04:17:06;;;;;;;47.78;31.38;;;;;;;23.20;71.37;100748.13;4868440;28;125394;-82
2022/07/01 04:19:32;;;;;;;37.67;28.55;;;;;;;23.26;70.90;100751.56;4875735;28;122911;-82
2022/07/01 04:25:03;;;;;;;43.25;29.80;;;;;;;23.30;71.69;100754.03;4850581;28;122850;-82
2022/07/01 04:27:30;;;;;;;38.60;27.73;;;;;;;23.29;71.63;100747.69;4850390;28;124967;-82
2022/07/01 04:29:56;;;;;;;38.17;28.70;;;;;;;23.30;70.83;100759.66;4864416;28;123133;-82
2022/07/01 04:32:22;;;;;;;36.95;26.77;;;;;;;23.37;70.82;100770.94;4850517;28;122414;-82
2022/07/01 04:34:47;;;;;;;38.15;27.02;;;;;;;23.30;70.71;100766.00;4835710;28;125428;-81
2022/07/01 04:37:19;;;;;;;33.03;25.58;;;;;;;23.35;70.98;100769.97;4819295;28;123621;-81
2022/07/01 04:39:45;;;;;;;31.77;25.73;;;;;;;23.39;71.26;100776.00;4867469;28;122594;-81
2022/07/01 04:42:11;;;;;;;34.25;24.15;;;;;;;23.37;71.43;100782.13;4835733;28;122036;-81
2022/07/01 04:44:37;;;;;;;28.00;21.85;;;;;;;23.34;70.68;100774.81;4836904;29;122237;-81
2022/07/01 04:47:04;;;;;;;28.17;21.80;;;;;;;23.33;71.02;100773.31;4863939;28;122250;-81
2022/07/01 04:49:30;;;;;;;24.95;19.75;;;;;;;23.31;70.40;100777.94;4834891;28;125772;-81
2022/07/01 04:51:57;;;;;;;28.40;20.05;;;;;;;23.30;70.21;100773.63;4850379;28;122606;-81
2022/07/01 04:54:23;;;;;;;24.17;17.17;;;;;;;23.23;71.01;100787.00;4835042;28;125374;-81
2022/07/01 04:56:50;;;;;;;21.35;15.85;;;;;;;23.25;70.55;100790.00;4887401;28;122342;-81
2022/07/01 04:59:16;;;;;;;23.52;15.90;;;;;;;23.22;69.88;100790.31;4906534;28;122866;-81
2022/07/01 05:01:42;;;;;;;23.60;14.98;;;;;;;23.20;70.15;100785.25;4874856;28;123049;-81
2022/07/01 05:04:11;;;;;;;28.75;14.57;;;;;;;23.13;70.02;100783.09;4884055;28;122534;-81
2022/07/01 05:06:37;;;;;;;20.55;12.60;;;;;;;23.11;69.71;100780.06;4884531;28;122227;-79
2022/07/01 05:09:04;;;;;;;24.10;12.48;;;;;;;23.04;69.76;100779.97;4901274;28;123259;-80
2022/07/01 05:11:30;;;;;;;26.02;13.45;;;;;;;23.06;69.55;100794.91;4895501;28;122369;-81
2022/07/01 05:13:56;;;;;;;25.80;12.27;;;;;;;23.04;70.11;100810.72;4873654;28;124402;-81
2022/07/01 05:16:21;;;;;;;25.70;11.95;;;;;;;23.08;69.92;100822.34;4886362;28;124994;-81
2022/07/01 05:24:16;;;;;;;33.05;12.13;;;;;;;22.96;69.76;100835.78;4884008;28;125864;-81
2022/07/01 05:26:41;;;;;;;28.75;11.18;;;;;;;22.86;69.86;100831.88;4853124;28;122469;-80
2022/07/01 05:29:07;;;;;;;29.58;10.63;;;;;;;22.92;69.17;100852.09;4895968;28;121994;-81
2022/07/01 05:31:33;;;;;;;29.48;10.30;;;;;;;22.84;69.72;100834.44;4892018;28;122183;-81
2022/07/01 05:33:59;;;;;;;34.70;10.80;;;;;;;22.86;69.22;100841.00;4875097;28;121777;-81
2022/07/01 05:36:27;;;;;;;31.38;10.93;;;;;;;22.86;69.09;100845.84;4869879;28;125706;-81
2022/07/01 05:38:53;;;;;;;32.22;11.25;;;;;;;22.82;69.29;100848.19;4874285;28;122324;-81
2022/07/01 05:41:19;;;;;;;31.05;10.18;;;;;;;22.77;69.11;100837.84;4906830;28;122069;-81
2022/07/01 05:43:44;;;;;;;34.17;11.23;;;;;;;22.81;68.94;100843.88;4887209;28;122856;-81
2022/07/01 05:46:11;;;;;;;29.35;10.48;;;;;;;22.82;68.61;100839.81;4870793;28;122193;-82
2022/07/01 05:48:37;;;;;;;30.35;9.98;;;;;;;22.78;68.92;100840.09;4891289;28;122359;-82
2022/07/01 05:51:02;;;;;;;35.30;10.32;;;;;;;22.74;69.39;100844.50;4869592;28;122502;-81
2022/07/01 05:53:31;;;;;;;29.40;9.95;;;;;;;22.79;69.32;100849.25;4903660;28;122782;-81
2022/07/01 05:55:57;;;;;;;32.13;9.90;;;;;;;22.77;68.84;100860.22;4872838;28;125225;-81
2022/07/01 05:58:22;;;;;;;31.45;10.90;;;;;;;22.78;68.39;100867.31;4842149;28;122375;-81
2022/07/01 06:00:48;;;;;;;33.75;11.30;;;;;;;22.79;68.39;100877.22;4906121;28;122063;-81
2022/07/01 06:03:14;;;;;;;28.90;9.95;;;;;;;22.75;69.05;100887.94;4857796;28;125018;-81
2022/07/01 06:05:41;;;;;;;29.08;9.93;;;;;;;22.70;68.97;100881.13;4873401;28;122315;-81
2022/07/01 06:08:07;;;;;;;29.77;10.77;;;;;;;22.73;68.66;100890.53;4868506;28;121910;-81
2022/07/01 06:10:34;;;;;;;32.78;11.48;;;;;;;22.60;68.46;100872.38;4849271;28;125478;-81
2022/07/01 06:13:00;;;;;;;27.13;10.73;;;;;;;22.64;68.90;100886.81;4874439;28;124544;-81
2022/07/01 06:15:26;;;;;;;24.95;10.10;;;;;;;22.57;68.97;100873.44;4869339;28;124906;-82
2022/07/01 06:17:53;;;;;;;26.40;10.52;;;;;;;22.59;68.72;100890.44;4882620;28;122125;-81
2022/07/01 06:20:19;;;;;;;30.27;10.93;;;;;;;22.49;68.43;100886.53;4874175;28;123371;-81
2022/07/01 06:22:44;;;;;;;25.48;10.82;;;;;;;22.46;68.51;100884.75;4856469;28;123537;-81
2022/07/01 06:25:10;;;;;;;27.58;10.02;;;;;;;22.52;68.47;100899.44;4886402;28;121863;-81
2022/07/01 06:27:43;;;;;;;28.30;10.52;;;;;;;22.52;68.37;100909.88;4871360;28;124894;-82
2022/07/01 06:30:10;;;;;;;28.15;10.02;;;;;;;22.48;68.86;100904.59;4871079;28;123065;-81
2022/07/01 06:32:36;;;;;;;25.90;10.45;;;;;;;22.46;68.76;100907.13;4872451;28;122070;-82
2022/07/01 06:35:03;;;;;;;23.90;10.40;;;;;;;22.43;68.64;100910.97;4880876;28;125369;-81
2022/07/01 06:37:31;;;;;;;30.83;10.15;;;;;;;22.33;68.99;100905.00;4865016;28;121937;-82
2022/07/01 06:39:56;;;;;;;24.17;9.85;;;;;;;22.31;68.72;100910.38;4882536;28;122003;-81
2022/07/01 06:42:23;;;;;;;32.67;10.00;;;;;;;22.33;68.86;100916.19;4900060;28;125468;-81
2022/07/01 06:44:48;;;;;;;26.50;9.63;;;;;;;22.33;69.38;100910.59;4883060;28;122713;-81
2022/07/01 06:47:14;;;;;;;22.55;9.35;;;;;;;22.32;69.13;100919.50;4863406;28;123671;-81
2022/07/01 06:49:40;;;;;;;20.42;8.73;;;;;;;22.22;69.33;100905.13;4880301;28;125307;-81
2022/07/01 06:52:05;;;;;;;18.27;7.53;;;;;;;22.20;68.62;100913.28;4890064;28;122015;-82
2022/07/01 06:54:31;;;;;;;19.83;7.03;;;;;;;22.21;68.31;100919.63;4875308;28;124717;-81
2022/07/01 06:56:56;;;;;;;16.95;6.22;;;;;;;22.15;68.25;100918.94;4872977;28;122502;-81
2022/07/01 06:59:22;;;;;;;16.88;6.10;;;;;;;22.11;68.35;100922.03;4842830;28;123801;-81
2022/07/01 07:01:49;;;;;;;16.27;6.20;;;;;;;22.03;68.35;100921.09;4854251;28;125209;-81
2022/07/01 07:04:16;;;;;;;14.20;4.97;;;;;;;22.06;68.97;100942.41;4856039;28;123253;-80
2022/07/01 07:06:44;;;;;;;13.77;4.70;;;;;;;22.01;68.38;100940.41;4889945;28;121677;-81
2022/07/01 07:09:09;;;;;;;17.98;5.22;;;;;;;21.90;68.73;100934.94;4872928;28;124917;-81
2022/07/01 07:11:38;;;;;;;13.63;4.30;;;;;;;21.89;68.17;100939.78;4875818;28;122305;-80
2022/07/01 07:14:06;;;;;;;12.48;4.50;;;;;;;21.92;68.54;100957.50;4885139;28;124448;-81
2022/07/01 07:16:32;;;;;;;10.50;4.13;;;;;;;21.92;68.11;100969.44;4892083;28;125057;-81
2022/07/01 07:18:58;;;;;;;14.50;4.13;;;;;;;21.88;68.00;100974.56;4872395;28;125114;-81
2022/07/01 07:21:23;;;;;;;11.02;3.88;;;;;;;21.84;67.92;100981.72;4872347;28;122315;-82
2022/07/01 07:23:49;;;;;;;11.23;3.92;;;;;;;21.75;67.86;100974.41;4868739;28;122049;-81
2022/07/01 07:26:14;;;;;;;14.13;3.83;;;;;;;21.75;68.06;100971.63;4856531;28;122688;-81
2022/07/01 07:28:40;;;;;;;13.07;2.78;;;;;;;21.77;67.94;100977.47;4856120;28;121640;-81
2022/07/01 07:31:06;;;;;;;10.18;3.20;;;;;;;21.76;67.93;100984.31;4886376;28;121548;-80
2022/07/01 07:33:31;;;;;;;11.57;3.22;;;;;;;21.76;68.17;100992.69;4872547;28;123674;-80
2022/07/01 07:35:57;;;;;;;13.18;2.78;;;;;;;21.74;68.37;100996.00;4886076;28;122399;-80
2022/07/01 07:38:22;;;;;;;9.45;2.80;;;;;;;21.70;68.14;100981.56;4873939;28;123245;-81
2022/07/01 07:40:48;;;;;;;10.68;2.92;;;;;;;21.67;68.17;101001.41;4838838;28;125906;-81
2022/07/01 07:43:14;;;;;;;11.15;3.00;;;;;;;21.66;68.37;101005.47;4872521;28;121318;-81
2022/07/01 07:45:39;;;;;;;9.13;2.75;;;;;;;21.67;68.03;101004.19;4873752;28;123918;-81
2022/07/01 07:48:06;;;;;;;13.02;2.72;;;;;;;21.66;68.63;100999.88;4852883;28;125065;-81
2022/07/01 07:50:35;;;;;;;12.50;3.10;;;;;;;21.66;68.16;101000.63;4869342;28;121671;-81
2022/07/01 07:53:01;;;;;;;8.15;2.47;;;;;;;21.59;68.25;100995.63;4894123;28;123877;-82
2022/07/01 07:55:28;;;;;;;12.73;2.97;;;;;;;21.59;68.74;100989.28;4906175;28;121998;-82
2022/07/01 07:57:54;;;;;;;9.82;2.65;;;;;;;21.66;68.62;101008.25;4897604;28;121392;-82
2022/07/01 08:00:20;;;;;;;13.32;2.40;;;;;;;21.61;68.92;101004.25;4872575;28;124702;-82
2022/07/01 08:02:46;;;;;;;7.30;2.20;;;;;;;21.54;68.66;100999.22;4872034;28;121315;-81
2022/07/01 08:05:13;;;;;;;9.18;2.35;;;;;;;21.55;68.44;101013.94;4893769;28;121928;-82
2022/07/01 08:07:41;;;;;;;6.18;2.10;;;;;;;21.60;69.14;101024.31;4858471;28;125362;-82
2022/07/01 08:10:09;;;;;;;8.23;2.05;;;;;;;21.57;69.06;101025.34;4872343;28;121288;-82
2022/07/01 08:12:35;;;;;;;8.98;1.92;;;;;;;21.57;68.34;101030.94;4890222;28;121191;-82
2022/07/01 08:15:01;;;;;;;6.28;1.73;;;;;;;21.50;68.32;101028.69;4883147;28;121455;-82
2022/07/01 08:17:26;;;;;;;8.27;1.80;;;;;;;21.50;68.71;101034.25;4889271;28;121456;-82
2022/07/01 08:19:52;;;;;;;6.10;1.50;;;;;;;21.51;68.88;101036.53;4908769;28;121183;-82
2022/07/01 08:22:19;;;;;;;7.20;1.90;;;;;;;21.53;68.64;101036.78;4873829;28;121256;-82
2022/07/01 08:24:45;;;;;;;5.22;1.67;;;;;;;21.48;68.38;101026.41;4871400;28;123666;-83
2022/07/01 08:27:30;;;;;;;7.97;1.90;;;;;;;21.51;68.55;101027.41;4900193;28;123876;-82
2022/07/01 08:29:57;;;;;;;8.63;1.77;;;;;;;21.52;68.42;101034.50;4886573;28;121218;-82
2022/07/01 08:32:25;;;;;;;9.65;1.80;;;;;;;21.42;68.42;101025.69;4870747;28;123470;-82
2022/07/01 08:34:51;;;;;;;4.70;1.45;;;;;;;21.48;68.95;101034.00;4877548;28;124600;-82
2022/07/01 08:37:19;;;;;;;9.15;1.40;;;;;;;21.44;68.50;101034.28;4865362;28;123194;-82
2022/07/01 08:39:45;;;;;;;4.88;1.73;;;;;;;21.52;69.11;101045.66;4870789;28;122700;-82
2022/07/01 08:42:11;;;;;;;6.32;1.60;;;;;;;21.48;68.52;101034.78;4851666;28;124516;-83
2022/07/01 08:44:36;;;;;;;8.70;1.70;;;;;;;21.52;68.77;101040.06;4909710;28;121541;-83
2022/07/01 08:47:03;;;;;;;6.70;1.52;;;;;;;21.47;68.93;101038.09;4873156;28;124741;-83
2022/07/01 08:49:28;;;;;;;6.97;1.52;;;;;;;21.46;69.16;101034.53;4870511;28;121577;-83
2022/07/01 08:51:54;;;;;;;7.63;1.60;;;;;;;21.46;69.27;101031.75;4841237;28;123846;-83
2022/07/01 08:54:20;;;;;;;7.53;1.50;;;;;;;21.51;68.54;101046.94;4840159;28;124350;-83
2022/07/01 08:57:07;;;;;;;9.15;1.77;;;;;;;21.52;69.52;101048.44;4866155;28;121026;-82
2022/07/01 08:59:44;;;;;;;7.28;1.45;;;;;;;21.49;68.97;101050.25;4889108;28;121641;-82
2022/07/01 09:02:10;;;;;;;8.93;1.70;;;;;;;21.53;68.88;101059.13;4894664;28;121634;-83
2022/07/01 09:04:35;;;;;;;8.50;1.50;;;;;;;21.48;69.14;101059.91;4885878;28;122297;-82
2022/07/01 09:07:09;;;;;;;8.35;2.03;;;;;;;21.50;69.19;101067.75;4859364;28;122790;-82
2022/07/01 09:09:39;;;;;;;9.18;1.77;;;;;;;21.52;68.86;101065.19;4890902;28;122007;-82
2022/07/01 09:12:07;;;;;;;7.22;1.38;;;;;;;21.46;69.39;101062.44;4875885;28;124813;-83
2022/07/01 09:14:34;;;;;;;8.82;1.80;;;;;;;21.49;69.64;101074.59;4879280;28;124746;-82
2022/07/01 09:17:03;;;;;;;5.57;1.77;;;;;;;21.51;69.11;101063.69;4886690;28;121224;-82
2022/07/01 09:19:34;;;;;;;5.82;1.50;;;;;;;21.51;69.54;101066.47;4883504;28;121764;-82
2022/07/01 09:22:02;;;;;;;7.47;1.38;;;;;;;21.50;69.35;101074.09;4875142;28;121704;-81
2022/07/01 09:24:33;;;;;;;6.80;1.83;;;;;;;21.46;69.68;101062.44;4878406;28;121321;-81
2022/07/01 09:27:11;;;;;;;7.13;2.00;;;;;;;21.53;69.52;101070.28;4894054;28;123485;-81
2022/07/01 09:29:42;;;;;;;6.60;1.75;;;;;;;21.53;69.62;101066.72;4885954;28;121962;-82
2022/07/01 09:32:11;;;;;;;6.05;1.60;;;;;;;21.54;69.62;101076.63;4859480;28;123833;-82
2022/07/01 09:34:51;;;;;;;6.32;1.50;;;;;;;21.53;69.60;101078.66;4905171;28;122867;-82
2022/07/01 09:37:19;;;;;;;7.40;1.27;;;;;;;21.50;69.13;101085.25;4891196;28;121535;-82
2022/07/01 09:39:52;;;;;;;7.55;1.10;;;;;;;21.45;69.19;101086.03;4878816;28;121858;-82
2022/07/01 09:42:19;;;;;;;5.63;1.10;;;;;;;21.36;69.04;101080.78;4869213;28;121650;-82
2022/07/01 09:44:55;;;;;;;4.25;1.20;;;;;;;21.42;68.98;101098.25;4885630;28;121004;-82
2022/07/01 09:47:23;;;;;;;4.30;1.25;;;;;;;21.34;68.65;101086.88;4874476;28;121066;-85
2022/07/01 09:49:49;;;;;;;5.63;1.30;;;;;;;21.29;68.56;101084.84;4877181;28;121621;-83
2022/07/01 09:52:19;;;;;;;7.35;1.20;;;;;;;21.35;69.21;101105.13;4906586;28;120973;-83
2022/07/01 09:54:47;;;;;;;7.25;1.20;;;;;;;21.32;69.15;101103.38;4873767;28;124135;-82
2022/07/01 09:57:13;;;;;;;6.25;1.33;;;;;;;21.31;69.41;101109.47;4897459;28;121183;-82
2022/07/01 09:59:49;;;;;;;5.55;1.20;;;;;;;21.24;69.44;101099.59;4873731;28;122875;-82
2022/07/01 10:02:18;;;;;;;6.25;1.55;;;;;;;21.19;69.01;101105.19;4852919;28;124009;-82
2022/07/01 10:05:04;;;;;;;9.98;1.40;;;;;;;21.22;69.11;101107.69;4869278;28;121563;-82
2022/07/01 10:07:55;;;;;;;4.95;1.30;;;;;;;21.26;69.16;101107.44;4873437;28;123598;-82
2022/07/01 10:10:39;;;;;;;5.63;1.50;;;;;;;21.25;69.51;101112.28;4873624;28;122602;-82
2022/07/01 10:13:08;;;;;;;5.88;1.67;;;;;;;21.23;69.13;101106.44;4858014;28;122962;-83
2022/07/01 10:15:34;;;;;;;6.97;1.90;;;;;;;21.26;69.59;101116.59;4888697;28;122430;-83
2022/07/01 10:18:00;;;;;;;8.00;1.40;;;;;;;21.26;69.38;101113.78;4873031;28;122043;-82
2022/07/01 10:20:30;;;;;;;9.13;1.98;;;;;;;21.27;69.65;101117.34;4870563;28;121630;-82
2022/07/01 10:23:06;;;;;;;6.80;1.70;;;;;;;21.23;69.84;101109.22;4870782;28;123173;-81
2022/07/01 10:25:46;;;;;;;5.28;1.60;;;;;;;21.26;69.46;101113.78;4874456;28;121339;-81
2022/07/01 10:28:27;;;;;;;6.38;2.10;;;;;;;21.27;69.75;101106.94;4891118;28;121543;-82
2022/07/01 10:31:00;;;;;;;4.22;1.83;;;;;;;21.27;70.07;101106.19;4885925;28;121711;-82
2022/07/01 10:33:34;;;;;;;15.30;2.25;;;;;;;21.25;69.90;101095.53;4861772;28;121156;-82
2022/07/01 10:36:22;;;;;;;6.70;2.22;;;;;;;21.28;69.63;101099.31;4872824;28;123713;-82
2022/07/01 10:39:00;;;;;;;8.55;2.47;;;;;;;21.29;69.37;101101.59;4889027;28;121328;-82
2022/07/01 10:41:27;;;;;;;6.30;2.30;;;;;;;21.30;69.42;101099.59;4903114;28;122667;-81
2022/07/01 10:43:56;;;;;;;5.35;2.22;;;;;;;21.30;69.55;101103.16;4871499;28;122501;-82
2022/07/01 10:47:04;;;;;;;7.53;2.67;;;;;;;21.28;69.23;101116.06;4841295;28;122863;-82
2022/07/01 10:49:36;;;;;;;8.63;2.70;;;;;;;21.27;69.65;101114.56;4817162;28;121637;-83
2022/07/01 10:52:20;;;;;;;7.35;2.50;;;;;;;21.25;69.53;101105.94;4823896;28;122984;-82
2022/07/01 10:55:00;;;;;;;8.00;2.88;;;;;;;21.21;69.36;101106.19;4808710;28;121241;-82
2022/07/01 10:57:32;;;;;;;6.82;3.10;;;;;;;21.17;69.62;101102.16;4826331;28;121382;-83
2022/07/01 11:00:00;;;;;;;8.38;2.28;;;;;;;21.20;69.08;101104.66;4819677;28;121362;-83
2022/07/01 11:02:30;;;;;;;6.38;2.72;;;;;;;21.19;69.38;101108.72;4819295;28;123267;-83
2022/07/01 11:05:00;;;;;;;6.20;2.50;;;;;;;21.20;68.99;101110.25;4803316;28;124777;-83
2022/07/01 11:07:32;;;;;;;9.93;2.63;;;;;;;21.14;69.05;101099.13;4822630;28;120911;-84
2022/07/01 11:09:59;;;;;;;9.43;2.83;;;;;;;21.16;68.81;101115.34;4819208;28;120901;-84
2022/07/01 11:12:27;;;;;;;5.40;2.90;;;;;;;21.11;68.49;101107.75;4824383;28;124104;-84
2022/07/01 11:15:13;;;;;;;7.78;2.65;;;;;;;21.15;68.79;101119.41;4815378;28;120792;-83
2022/07/01 11:17:46;;;;;;;7.28;3.22;;;;;;;21.16;68.86;101129.28;4808355;28;123798;-84
2022/07/01 11:20:12;;;;;;;7.00;3.03;;;;;;;21.14;67.78;101134.63;4828884;28;123653;-84